sensor_id;sensor_type;location;lat;lon;timestamp;P1;durP1;ratioP1;P2;durP2;ratioP2
69906;SDS011;57190;47.918;8.112;2023-01-30T00:01:04;7.20;;;6.23;;
69906;SDS011;57190;47.918;8.112;2023-01-30T00:03:31;7.30;;;6.60;;
69906;SDS011;57190;47.918;8.112;2023-01-30T00:05:56;6.97;;;6.27;;
69906;SDS011;57190;47.918;8.112;2023-01-30T00:08:22;6.80;;;6.20;;
69906;SDS011;57190;47.918;8.112;2023-01-30T00:10:47;6.10;;;5.60;;
69906;SDS011;57190;47.918;8.112;2023-01-30T00:13:13;6.70;;;6.10;;
69906;SDS011;57190;47.918;8.112;2023-01-30T00:15:39;6.87;;;6.20;;
69906;SDS011;57190;47.918;8.112;2023-01-30T00:18:05;6.70;;;6.10;;
69906;SDS011;57190;47.918;8.112;2023-01-30T00:20:31;7.20;;;6.50;;
69906;SDS011;57190;47.918;8.112;2023-01-30T00:22:57;6.40;;;5.80;;
69906;SDS011;57190;47.918;8.112;2023-01-30T00:25:23;7.27;;;6.37;;
69906;SDS011;57190;47.918;8.112;2023-01-30T00:27:50;7.73;;;6.40;;
69906;SDS011;57190;47.918;8.112;2023-01-30T00:30:15;6.80;;;6.13;;
69906;SDS011;57190;47.918;8.112;2023-01-30T00:32:41;6.77;;;6.07;;
69906;SDS011;57190;47.918;8.112;2023-01-30T00:35:06;7.17;;;6.50;;
69906;SDS011;57190;47.918;8.112;2023-01-30T00:37:32;6.23;;;5.63;;
69906;SDS011;57190;47.918;8.112;2023-01-30T00:39:57;6.03;;;5.43;;
69906;SDS011;57190;47.918;8.112;2023-01-30T00:42:23;8.40;;;7.60;;
69906;SDS011;57190;47.918;8.112;2023-01-30T00:45:08;6.73;;;6.03;;
69906;SDS011;57190;47.918;8.112;2023-01-30T00:47:54;6.43;;;5.83;;
69906;SDS011;57190;47.918;8.112;2023-01-30T00:50:20;6.30;;;5.70;;
69906;SDS011;57190;47.918;8.112;2023-01-30T00:52:45;5.97;;;5.40;;
69906;SDS011;57190;47.918;8.112;2023-01-30T00:55:10;6.17;;;5.67;;
69906;SDS011;57190;47.918;8.112;2023-01-30T00:57:36;5.47;;;4.97;;
69906;SDS011;57190;47.918;8.112;2023-01-30T01:00:02;5.93;;;5.40;;
69906;SDS011;57190;47.918;8.112;2023-01-30T01:02:29;5.93;;;5.33;;
69906;SDS011;57190;47.918;8.112;2023-01-30T01:04:55;6.23;;;5.40;;
69906;SDS011;57190;47.918;8.112;2023-01-30T01:07:20;5.53;;;5.03;;
69906;SDS011;57190;47.918;8.112;2023-01-30T01:09:46;5.97;;;5.37;;
69906;SDS011;57190;47.918;8.112;2023-01-30T01:12:11;4.73;;;4.33;;
69906;SDS011;57190;47.918;8.112;2023-01-30T01:14:37;5.27;;;4.87;;
69906;SDS011;57190;47.918;8.112;2023-01-30T01:17:02;5.63;;;5.10;;
69906;SDS011;57190;47.918;8.112;2023-01-30T01:19:28;4.83;;;4.40;;
69906;SDS011;57190;47.918;8.112;2023-01-30T01:21:53;4.33;;;3.93;;
69906;SDS011;57190;47.918;8.112;2023-01-30T01:24:19;4.17;;;3.77;;
69906;SDS011;57190;47.918;8.112;2023-01-30T01:26:44;4.23;;;3.83;;
69906;SDS011;57190;47.918;8.112;2023-01-30T01:29:11;4.10;;;3.80;;
69906;SDS011;57190;47.918;8.112;2023-01-30T01:31:40;3.50;;;3.20;;
69906;SDS011;57190;47.918;8.112;2023-01-30T01:34:06;3.47;;;3.17;;
69906;SDS011;57190;47.918;8.112;2023-01-30T01:36:31;4.10;;;3.70;;
69906;SDS011;57190;47.918;8.112;2023-01-30T01:38:57;3.80;;;3.50;;
69906;SDS011;57190;47.918;8.112;2023-01-30T01:41:22;4.10;;;3.43;;
69906;SDS011;57190;47.918;8.112;2023-01-30T01:44:01;3.87;;;3.57;;
69906;SDS011;57190;47.918;8.112;2023-01-30T01:46:31;3.43;;;3.13;;
69906;SDS011;57190;47.918;8.112;2023-01-30T01:49:02;3.23;;;2.93;;
69906;SDS011;57190;47.918;8.112;2023-01-30T01:52:03;2.80;;;2.60;;
69906;SDS011;57190;47.918;8.112;2023-01-30T01:54:33;2.53;;;2.30;;
69906;SDS011;57190;47.918;8.112;2023-01-30T01:57:19;3.23;;;2.93;;
69906;SDS011;57190;47.918;8.112;2023-01-30T01:59:58;4.10;;;3.80;;
69906;SDS011;57190;47.918;8.112;2023-01-30T02:02:29;5.47;;;4.97;;
69906;SDS011;57190;47.918;8.112;2023-01-30T02:04:55;6.10;;;5.50;;
69906;SDS011;57190;47.918;8.112;2023-01-30T02:07:34;5.80;;;5.30;;
69906;SDS011;57190;47.918;8.112;2023-01-30T02:10:06;6.60;;;5.97;;
69906;SDS011;57190;47.918;8.112;2023-01-30T02:12:34;6.13;;;5.53;;
69906;SDS011;57190;47.918;8.112;2023-01-30T02:15:02;6.53;;;5.93;;
69906;SDS011;57190;47.918;8.112;2023-01-30T02:17:28;6.53;;;5.93;;
69906;SDS011;57190;47.918;8.112;2023-01-30T02:19:54;6.10;;;5.50;;
69906;SDS011;57190;47.918;8.112;2023-01-30T02:33:42;6.47;;;5.57;;
69906;SDS011;57190;47.918;8.112;2023-01-30T02:39:01;6.20;;;5.63;;
69906;SDS011;57190;47.918;8.112;2023-01-30T02:44:36;6.33;;;5.73;;
69906;SDS011;57190;47.918;8.112;2023-01-30T02:52:49;6.63;;;6.03;;
69906;SDS011;57190;47.918;8.112;2023-01-30T02:55:20;6.83;;;6.20;;
69906;SDS011;57190;47.918;8.112;2023-01-30T02:57:48;5.70;;;5.20;;
69906;SDS011;57190;47.918;8.112;2023-01-30T03:00:14;5.57;;;5.03;;
69906;SDS011;57190;47.918;8.112;2023-01-30T03:08:39;5.77;;;5.27;;
69906;SDS011;57190;47.918;8.112;2023-01-30T03:11:18;5.00;;;4.50;;
69906;SDS011;57190;47.918;8.112;2023-01-30T03:13:54;5.20;;;4.80;;
69906;SDS011;57190;47.918;8.112;2023-01-30T03:16:36;4.77;;;4.27;;
69906;SDS011;57190;47.918;8.112;2023-01-30T03:19:04;5.07;;;4.47;;
69906;SDS011;57190;47.918;8.112;2023-01-30T03:21:33;5.10;;;4.70;;
69906;SDS011;57190;47.918;8.112;2023-01-30T03:23:59;5.10;;;4.70;;
69906;SDS011;57190;47.918;8.112;2023-01-30T03:26:25;4.97;;;4.57;;
69906;SDS011;57190;47.918;8.112;2023-01-30T03:28:56;5.27;;;4.77;;
69906;SDS011;57190;47.918;8.112;2023-01-30T03:31:22;4.70;;;4.30;;
69906;SDS011;57190;47.918;8.112;2023-01-30T03:33:48;4.37;;;3.97;;
69906;SDS011;57190;47.918;8.112;2023-01-30T03:36:14;4.37;;;3.97;;
69906;SDS011;57190;47.918;8.112;2023-01-30T03:38:39;5.00;;;4.43;;
69906;SDS011;57190;47.918;8.112;2023-01-30T03:41:05;5.00;;;4.30;;
69906;SDS011;57190;47.918;8.112;2023-01-30T03:43:30;4.43;;;4.03;;
69906;SDS011;57190;47.918;8.112;2023-01-30T03:45:56;5.60;;;4.87;;
69906;SDS011;57190;47.918;8.112;2023-01-30T03:48:21;6.80;;;4.57;;
69906;SDS011;57190;47.918;8.112;2023-01-30T03:50:47;5.63;;;4.60;;
69906;SDS011;57190;47.918;8.112;2023-01-30T03:53:13;4.60;;;4.20;;
69906;SDS011;57190;47.918;8.112;2023-01-30T03:55:39;5.47;;;4.97;;
69906;SDS011;57190;47.918;8.112;2023-01-30T03:58:04;5.93;;;5.40;;
69906;SDS011;57190;47.918;8.112;2023-01-30T04:00:30;4.60;;;4.20;;
69906;SDS011;57190;47.918;8.112;2023-01-30T04:02:55;5.50;;;4.93;;
69906;SDS011;57190;47.918;8.112;2023-01-30T04:05:21;5.03;;;4.53;;
69906;SDS011;57190;47.918;8.112;2023-01-30T04:07:48;4.90;;;4.40;;
69906;SDS011;57190;47.918;8.112;2023-01-30T04:10:14;5.63;;;5.03;;
69906;SDS011;57190;47.918;8.112;2023-01-30T04:12:40;5.30;;;4.87;;
69906;SDS011;57190;47.918;8.112;2023-01-30T04:15:07;5.30;;;4.80;;
69906;SDS011;57190;47.918;8.112;2023-01-30T04:17:33;5.30;;;4.80;;
69906;SDS011;57190;47.918;8.112;2023-01-30T04:19:58;5.07;;;4.57;;
69906;SDS011;57190;47.918;8.112;2023-01-30T04:22:24;4.90;;;4.50;;
69906;SDS011;57190;47.918;8.112;2023-01-30T04:24:49;5.43;;;4.93;;
69906;SDS011;57190;47.918;8.112;2023-01-30T04:27:15;4.63;;;4.23;;
69906;SDS011;57190;47.918;8.112;2023-01-30T04:29:40;5.33;;;4.83;;
69906;SDS011;57190;47.918;8.112;2023-01-30T04:32:06;5.37;;;4.73;;
69906;SDS011;57190;47.918;8.112;2023-01-30T04:34:32;4.83;;;4.43;;
69906;SDS011;57190;47.918;8.112;2023-01-30T04:36:57;5.00;;;4.60;;
69906;SDS011;57190;47.918;8.112;2023-01-30T04:39:23;4.40;;;4.03;;
69906;SDS011;57190;47.918;8.112;2023-01-30T04:41:48;5.30;;;4.80;;
69906;SDS011;57190;47.918;8.112;2023-01-30T04:44:14;5.00;;;4.60;;
69906;SDS011;57190;47.918;8.112;2023-01-30T04:46:39;4.80;;;4.40;;
69906;SDS011;57190;47.918;8.112;2023-01-30T04:49:05;5.70;;;5.20;;
69906;SDS011;57190;47.918;8.112;2023-01-30T04:51:30;4.33;;;3.93;;
69906;SDS011;57190;47.918;8.112;2023-01-30T04:53:55;4.70;;;4.30;;
69906;SDS011;57190;47.918;8.112;2023-01-30T04:56:21;4.83;;;4.33;;
69906;SDS011;57190;47.918;8.112;2023-01-30T04:58:46;5.00;;;4.50;;
69906;SDS011;57190;47.918;8.112;2023-01-30T05:01:18;4.80;;;4.40;;
69906;SDS011;57190;47.918;8.112;2023-01-30T05:03:50;4.83;;;4.33;;
69906;SDS011;57190;47.918;8.112;2023-01-30T05:06:17;4.73;;;4.33;;
69906;SDS011;57190;47.918;8.112;2023-01-30T05:08:43;4.93;;;4.43;;
69906;SDS011;57190;47.918;8.112;2023-01-30T05:11:08;4.57;;;4.17;;
69906;SDS011;57190;47.918;8.112;2023-01-30T05:13:33;3.93;;;3.63;;
69906;SDS011;57190;47.918;8.112;2023-01-30T05:15:59;4.20;;;3.90;;
69906;SDS011;57190;47.918;8.112;2023-01-30T05:18:24;4.00;;;3.70;;
69906;SDS011;57190;47.918;8.112;2023-01-30T05:20:50;4.93;;;3.67;;
69906;SDS011;57190;47.918;8.112;2023-01-30T05:23:15;3.87;;;3.57;;
69906;SDS011;57190;47.918;8.112;2023-01-30T05:25:41;4.70;;;4.17;;
69906;SDS011;57190;47.918;8.112;2023-01-30T05:28:06;5.03;;;4.63;;
69906;SDS011;57190;47.918;8.112;2023-01-30T05:30:32;4.80;;;4.30;;
69906;SDS011;57190;47.918;8.112;2023-01-30T05:32:57;4.50;;;4.10;;
69906;SDS011;57190;47.918;8.112;2023-01-30T05:35:23;5.07;;;4.63;;
69906;SDS011;57190;47.918;8.112;2023-01-30T05:37:49;5.43;;;4.93;;
69906;SDS011;57190;47.918;8.112;2023-01-30T05:40:15;7.57;;;4.87;;
69906;SDS011;57190;47.918;8.112;2023-01-30T05:42:41;5.60;;;5.07;;
69906;SDS011;57190;47.918;8.112;2023-01-30T05:45:06;5.00;;;4.53;;
69906;SDS011;57190;47.918;8.112;2023-01-30T05:47:32;5.37;;;4.87;;
69906;SDS011;57190;47.918;8.112;2023-01-30T05:49:58;4.80;;;4.40;;
69906;SDS011;57190;47.918;8.112;2023-01-30T05:52:23;4.77;;;4.37;;
69906;SDS011;57190;47.918;8.112;2023-01-30T05:54:49;5.33;;;4.83;;
69906;SDS011;57190;47.918;8.112;2023-01-30T05:57:14;5.17;;;4.67;;
69906;SDS011;57190;47.918;8.112;2023-01-30T05:59:40;5.77;;;4.97;;
69906;SDS011;57190;47.918;8.112;2023-01-30T06:02:05;5.20;;;4.70;;
69906;SDS011;57190;47.918;8.112;2023-01-30T06:04:31;5.97;;;5.23;;
69906;SDS011;57190;47.918;8.112;2023-01-30T06:06:56;6.03;;;5.47;;
69906;SDS011;57190;47.918;8.112;2023-01-30T06:09:22;6.70;;;6.10;;
69906;SDS011;57190;47.918;8.112;2023-01-30T06:11:47;6.53;;;5.90;;
69906;SDS011;57190;47.918;8.112;2023-01-30T06:14:12;7.83;;;5.87;;
69906;SDS011;57190;47.918;8.112;2023-01-30T06:16:38;7.00;;;6.20;;
69906;SDS011;57190;47.918;8.112;2023-01-30T06:19:03;6.27;;;5.67;;
69906;SDS011;57190;47.918;8.112;2023-01-30T06:21:29;6.50;;;5.87;;
69906;SDS011;57190;47.918;8.112;2023-01-30T06:23:55;6.90;;;6.30;;
69906;SDS011;57190;47.918;8.112;2023-01-30T06:26:20;7.03;;;6.43;;
69906;SDS011;57190;47.918;8.112;2023-01-30T06:28:46;5.47;;;4.97;;
69906;SDS011;57190;47.918;8.112;2023-01-30T06:31:12;7.07;;;5.93;;
69906;SDS011;57190;47.918;8.112;2023-01-30T06:33:37;5.83;;;5.30;;
69906;SDS011;57190;47.918;8.112;2023-01-30T06:36:03;5.77;;;5.27;;
69906;SDS011;57190;47.918;8.112;2023-01-30T06:38:29;6.17;;;5.57;;
69906;SDS011;57190;47.918;8.112;2023-01-30T06:40:54;6.57;;;5.97;;
69906;SDS011;57190;47.918;8.112;2023-01-30T06:43:20;6.63;;;6.03;;
69906;SDS011;57190;47.918;8.112;2023-01-30T06:45:45;6.83;;;6.20;;
69906;SDS011;57190;47.918;8.112;2023-01-30T06:48:11;6.70;;;5.97;;
69906;SDS011;57190;47.918;8.112;2023-01-30T06:50:36;7.67;;;6.50;;
69906;SDS011;57190;47.918;8.112;2023-01-30T06:53:03;6.73;;;6.03;;
69906;SDS011;57190;47.918;8.112;2023-01-30T06:55:30;6.50;;;5.90;;
69906;SDS011;57190;47.918;8.112;2023-01-30T06:58:05;6.70;;;6.10;;
69906;SDS011;57190;47.918;8.112;2023-01-30T07:00:32;6.47;;;5.87;;
69906;SDS011;57190;47.918;8.112;2023-01-30T07:02:58;6.10;;;5.60;;
69906;SDS011;57190;47.918;8.112;2023-01-30T07:05:24;6.50;;;5.90;;
69906;SDS011;57190;47.918;8.112;2023-01-30T07:07:49;8.70;;;7.80;;
69906;SDS011;57190;47.918;8.112;2023-01-30T07:10:15;7.03;;;6.40;;
69906;SDS011;57190;47.918;8.112;2023-01-30T07:12:41;6.83;;;6.13;;
69906;SDS011;57190;47.918;8.112;2023-01-30T07:15:07;6.87;;;6.27;;
69906;SDS011;57190;47.918;8.112;2023-01-30T07:17:33;6.70;;;6.03;;
69906;SDS011;57190;47.918;8.112;2023-01-30T07:19:58;6.73;;;6.13;;
69906;SDS011;57190;47.918;8.112;2023-01-30T07:22:24;7.37;;;6.53;;
69906;SDS011;57190;47.918;8.112;2023-01-30T07:24:49;7.63;;;6.93;;
69906;SDS011;57190;47.918;8.112;2023-01-30T07:27:15;7.10;;;6.50;;
69906;SDS011;57190;47.918;8.112;2023-01-30T07:29:41;7.77;;;6.97;;
69906;SDS011;57190;47.918;8.112;2023-01-30T07:32:07;9.33;;;8.20;;
69906;SDS011;57190;47.918;8.112;2023-01-30T07:34:39;11.20;;;9.90;;
69906;SDS011;57190;47.918;8.112;2023-01-30T07:37:04;13.10;;;11.17;;
69906;SDS011;57190;47.918;8.112;2023-01-30T07:39:30;38.30;;;26.43;;
69906;SDS011;57190;47.918;8.112;2023-01-30T07:41:55;31.43;;;22.57;;
69906;SDS011;57190;47.918;8.112;2023-01-30T07:44:21;87.57;;;56.73;;
69906;SDS011;57190;47.918;8.112;2023-01-30T07:46:46;26.07;;;20.03;;
69906;SDS011;57190;47.918;8.112;2023-01-30T07:49:12;8.33;;;7.53;;
69906;SDS011;57190;47.918;8.112;2023-01-30T07:51:37;10.43;;;9.33;;
69906;SDS011;57190;47.918;8.112;2023-01-30T07:54:03;13.80;;;12.27;;
69906;SDS011;57190;47.918;8.112;2023-01-30T07:56:28;7.60;;;6.90;;
69906;SDS011;57190;47.918;8.112;2023-01-30T07:58:55;5.93;;;4.93;;
69906;SDS011;57190;47.918;8.112;2023-01-30T08:01:21;4.63;;;4.23;;
69906;SDS011;57190;47.918;8.112;2023-01-30T08:03:47;5.73;;;5.23;;
69906;SDS011;57190;47.918;8.112;2023-01-30T08:06:16;4.43;;;4.13;;
69906;SDS011;57190;47.918;8.112;2023-01-30T08:08:41;4.60;;;4.20;;
69906;SDS011;57190;47.918;8.112;2023-01-30T08:11:08;5.47;;;5.07;;
69906;SDS011;57190;47.918;8.112;2023-01-30T08:13:33;5.97;;;5.57;;
69906;SDS011;57190;47.918;8.112;2023-01-30T08:15:59;5.63;;;5.13;;
69906;SDS011;57190;47.918;8.112;2023-01-30T08:18:29;5.37;;;4.90;;
69906;SDS011;57190;47.918;8.112;2023-01-30T08:20:56;5.77;;;5.37;;
69906;SDS011;57190;47.918;8.112;2023-01-30T08:23:22;6.00;;;5.50;;
69906;SDS011;57190;47.918;8.112;2023-01-30T08:25:47;5.73;;;5.33;;
69906;SDS011;57190;47.918;8.112;2023-01-30T08:28:13;5.27;;;4.80;;
69906;SDS011;57190;47.918;8.112;2023-01-30T08:30:40;5.60;;;5.10;;
69906;SDS011;57190;47.918;8.112;2023-01-30T08:33:06;6.10;;;5.67;;
69906;SDS011;57190;47.918;8.112;2023-01-30T08:35:31;6.70;;;6.20;;
69906;SDS011;57190;47.918;8.112;2023-01-30T08:37:56;6.87;;;6.27;;
69906;SDS011;57190;47.918;8.112;2023-01-30T08:40:22;7.63;;;6.87;;
69906;SDS011;57190;47.918;8.112;2023-01-30T08:42:47;6.90;;;6.30;;
69906;SDS011;57190;47.918;8.112;2023-01-30T08:45:13;6.10;;;5.60;;
69906;SDS011;57190;47.918;8.112;2023-01-30T08:47:38;4.83;;;4.43;;
69906;SDS011;57190;47.918;8.112;2023-01-30T08:50:04;5.00;;;4.60;;
69906;SDS011;57190;47.918;8.112;2023-01-30T08:52:31;4.23;;;3.93;;
69906;SDS011;57190;47.918;8.112;2023-01-30T08:54:57;4.60;;;4.30;;
69906;SDS011;57190;47.918;8.112;2023-01-30T08:57:22;4.27;;;3.97;;
69906;SDS011;57190;47.918;8.112;2023-01-30T08:59:48;4.30;;;4.00;;
69906;SDS011;57190;47.918;8.112;2023-01-30T09:02:15;3.30;;;3.10;;
69906;SDS011;57190;47.918;8.112;2023-01-30T09:04:41;1.80;;;1.70;;
69906;SDS011;57190;47.918;8.112;2023-01-30T09:07:07;1.53;;;1.43;;
69906;SDS011;57190;47.918;8.112;2023-01-30T09:09:32;1.20;;;1.20;;
69906;SDS011;57190;47.918;8.112;2023-01-30T09:11:58;1.40;;;1.30;;
69906;SDS011;57190;47.918;8.112;2023-01-30T09:14:24;1.00;;;1.00;;
69906;SDS011;57190;47.918;8.112;2023-01-30T09:16:49;0.80;;;0.80;;
69906;SDS011;57190;47.918;8.112;2023-01-30T09:19:22;0.90;;;0.90;;
69906;SDS011;57190;47.918;8.112;2023-01-30T09:21:49;0.90;;;0.90;;
69906;SDS011;57190;47.918;8.112;2023-01-30T09:24:15;0.90;;;0.90;;
69906;SDS011;57190;47.918;8.112;2023-01-30T09:26:41;0.82;;;0.82;;
69906;SDS011;57190;47.918;8.112;2023-01-30T09:29:12;0.80;;;0.80;;
69906;SDS011;57190;47.918;8.112;2023-01-30T09:31:38;0.90;;;0.90;;
69906;SDS011;57190;47.918;8.112;2023-01-30T09:34:04;0.73;;;0.73;;
69906;SDS011;57190;47.918;8.112;2023-01-30T09:36:30;0.80;;;0.80;;
69906;SDS011;57190;47.918;8.112;2023-01-30T09:38:56;0.90;;;0.90;;
69906;SDS011;57190;47.918;8.112;2023-01-30T09:43:59;1.08;;;1.08;;
69906;SDS011;57190;47.918;8.112;2023-01-30T09:47:29;0.80;;;0.80;;
69906;SDS011;57190;47.918;8.112;2023-01-30T09:49:44;0.87;;;0.87;;
69906;SDS011;57190;47.918;8.112;2023-01-30T09:55:26;1.63;;;1.52;;
69906;SDS011;57190;47.918;8.112;2023-01-30T09:57:55;0.75;;;0.70;;
69906;SDS011;57190;47.918;8.112;2023-01-30T10:10:55;0.80;;;0.80;;
69906;SDS011;57190;47.918;8.112;2023-01-30T10:13:34;1.00;;;1.00;;
69906;SDS011;57190;47.918;8.112;2023-01-30T10:16:09;0.90;;;0.90;;
69906;SDS011;57190;47.918;8.112;2023-01-30T10:21:16;0.93;;;0.80;;
69906;SDS011;57190;47.918;8.112;2023-01-30T10:26:47;0.80;;;0.70;;
69906;SDS011;57190;47.918;8.112;2023-01-30T10:29:20;0.80;;;0.80;;
69906;SDS011;57190;47.918;8.112;2023-01-30T10:31:58;0.80;;;0.80;;
69906;SDS011;57190;47.918;8.112;2023-01-30T10:34:39;0.70;;;0.70;;
69906;SDS011;57190;47.918;8.112;2023-01-30T10:48:44;1.20;;;1.10;;
69906;SDS011;57190;47.918;8.112;2023-01-30T10:54:32;1.23;;;1.10;;
69906;SDS011;57190;47.918;8.112;2023-01-30T10:57:13;1.93;;;1.80;;
69906;SDS011;57190;47.918;8.112;2023-01-30T11:05:58;4.23;;;2.10;;
69906;SDS011;57190;47.918;8.112;2023-01-30T11:08:31;1.93;;;1.80;;
69906;SDS011;57190;47.918;8.112;2023-01-30T11:10:58;1.60;;;1.47;;
69906;SDS011;57190;47.918;8.112;2023-01-30T11:13:28;2.30;;;2.20;;
69906;SDS011;57190;47.918;8.112;2023-01-30T11:16:07;2.80;;;2.50;;
69906;SDS011;57190;47.918;8.112;2023-01-30T11:18:43;2.23;;;2.03;;
69906;SDS011;57190;47.918;8.112;2023-01-30T11:21:19;2.57;;;2.37;;
69906;SDS011;57190;47.918;8.112;2023-01-30T11:23:48;3.30;;;2.73;;
69906;SDS011;57190;47.918;8.112;2023-01-30T11:26:27;3.33;;;3.03;;
69906;SDS011;57190;47.918;8.112;2023-01-30T11:28:55;4.13;;;3.83;;
69906;SDS011;57190;47.918;8.112;2023-01-30T11:31:24;3.27;;;2.80;;
69906;SDS011;57190;47.918;8.112;2023-01-30T11:34:00;3.70;;;3.40;;
69906;SDS011;57190;47.918;8.112;2023-01-30T11:36:29;3.63;;;3.33;;
69906;SDS011;57190;47.918;8.112;2023-01-30T11:39:02;3.70;;;3.40;;
69906;SDS011;57190;47.918;8.112;2023-01-30T11:44:24;3.13;;;2.93;;
69906;SDS011;57190;47.918;8.112;2023-01-30T11:47:06;3.80;;;3.50;;
69906;SDS011;57190;47.918;8.112;2023-01-30T11:49:40;4.00;;;3.70;;
69906;SDS011;57190;47.918;8.112;2023-01-30T11:52:10;3.63;;;3.33;;
69906;SDS011;57190;47.918;8.112;2023-01-30T11:54:37;2.60;;;2.40;;
69906;SDS011;57190;47.918;8.112;2023-01-30T11:57:09;2.70;;;2.50;;
69906;SDS011;57190;47.918;8.112;2023-01-30T12:04:50;4.10;;;3.70;;
69906;SDS011;57190;47.918;8.112;2023-01-30T12:07:21;4.30;;;3.90;;
69906;SDS011;57190;47.918;8.112;2023-01-30T12:09:49;5.33;;;4.83;;
69906;SDS011;57190;47.918;8.112;2023-01-30T12:12:42;3.80;;;3.50;;
69906;SDS011;57190;47.918;8.112;2023-01-30T12:15:27;4.47;;;4.10;;
69906;SDS011;57190;47.918;8.112;2023-01-30T12:18:15;3.93;;;3.60;;
69906;SDS011;57190;47.918;8.112;2023-01-30T12:23:55;3.90;;;3.53;;
69906;SDS011;57190;47.918;8.112;2023-01-30T12:26:30;4.70;;;4.30;;
69906;SDS011;57190;47.918;8.112;2023-01-30T12:34:33;4.40;;;4.00;;
69906;SDS011;57190;47.918;8.112;2023-01-30T12:57:11;2.80;;;2.60;;
69906;SDS011;57190;47.918;8.112;2023-01-30T13:00:08;2.60;;;2.40;;
69906;SDS011;57190;47.918;8.112;2023-01-30T13:05:45;2.43;;;2.23;;
69906;SDS011;57190;47.918;8.112;2023-01-30T13:08:36;2.57;;;2.37;;
69906;SDS011;57190;47.918;8.112;2023-01-30T13:11:19;2.77;;;2.57;;
69906;SDS011;57190;47.918;8.112;2023-01-30T13:19:51;3.30;;;3.10;;
69906;SDS011;57190;47.918;8.112;2023-01-30T13:25:03;3.67;;;3.37;;
69906;SDS011;57190;47.918;8.112;2023-01-30T13:27:39;3.37;;;3.13;;
69906;SDS011;57190;47.918;8.112;2023-01-30T13:30:18;3.57;;;3.27;;
69906;SDS011;57190;47.918;8.112;2023-01-30T13:32:52;3.90;;;3.60;;
69906;SDS011;57190;47.918;8.112;2023-01-30T13:35:26;3.33;;;3.07;;
69906;SDS011;57190;47.918;8.112;2023-01-30T13:37:55;3.13;;;2.80;;
69906;SDS011;57190;47.918;8.112;2023-01-30T13:40:22;2.47;;;2.27;;
69906;SDS011;57190;47.918;8.112;2023-01-30T13:42:55;2.53;;;2.33;;
69906;SDS011;57190;47.918;8.112;2023-01-30T13:45:31;2.73;;;2.53;;
69906;SDS011;57190;47.918;8.112;2023-01-30T13:59:15;1.30;;;1.20;;
69906;SDS011;57190;47.918;8.112;2023-01-30T14:07:07;1.33;;;1.23;;
69906;SDS011;57190;47.918;8.112;2023-01-30T14:09:39;0.93;;;0.93;;
69906;SDS011;57190;47.918;8.112;2023-01-30T14:12:15;1.20;;;1.10;;
69906;SDS011;57190;47.918;8.112;2023-01-30T14:15:23;1.10;;;1.10;;
69906;SDS011;57190;47.918;8.112;2023-01-30T14:20:46;1.20;;;1.20;;
69906;SDS011;57190;47.918;8.112;2023-01-30T14:23:33;1.07;;;1.00;;
69906;SDS011;57190;47.918;8.112;2023-01-30T14:26:00;1.37;;;1.27;;
69906;SDS011;57190;47.918;8.112;2023-01-30T14:38:30;1.40;;;1.30;;
69906;SDS011;57190;47.918;8.112;2023-01-30T14:45:59;1.07;;;1.07;;
69906;SDS011;57190;47.918;8.112;2023-01-30T14:48:27;1.47;;;1.37;;
69906;SDS011;57190;47.918;8.112;2023-01-30T14:53:50;1.30;;;1.10;;
69906;SDS011;57190;47.918;8.112;2023-01-30T14:56:34;1.30;;;1.20;;
69906;SDS011;57190;47.918;8.112;2023-01-30T14:59:08;1.40;;;1.30;;
69906;SDS011;57190;47.918;8.112;2023-01-30T15:02:28;1.40;;;1.30;;
69906;SDS011;57190;47.918;8.112;2023-01-30T15:10:07;1.60;;;1.50;;
69906;SDS011;57190;47.918;8.112;2023-01-30T15:32:33;1.20;;;1.13;;
69906;SDS011;57190;47.918;8.112;2023-01-30T15:35:00;0.90;;;0.90;;
69906;SDS011;57190;47.918;8.112;2023-01-30T15:50:45;1.77;;;1.37;;
69906;SDS011;57190;47.918;8.112;2023-01-30T15:53:13;1.40;;;1.30;;
69906;SDS011;57190;47.918;8.112;2023-01-30T15:55:41;1.00;;;1.00;;
69906;SDS011;57190;47.918;8.112;2023-01-30T15:58:09;1.40;;;1.30;;
69906;SDS011;57190;47.918;8.112;2023-01-30T16:00:39;1.13;;;1.13;;
69906;SDS011;57190;47.918;8.112;2023-01-30T16:03:19;1.20;;;1.20;;
69906;SDS011;57190;47.918;8.112;2023-01-30T16:05:50;1.60;;;1.50;;
69906;SDS011;57190;47.918;8.112;2023-01-30T16:08:29;1.40;;;1.30;;
69906;SDS011;57190;47.918;8.112;2023-01-30T16:10:57;1.63;;;1.53;;
69906;SDS011;57190;47.918;8.112;2023-01-30T16:13:24;1.40;;;1.30;;
69906;SDS011;57190;47.918;8.112;2023-01-30T16:15:52;1.83;;;1.53;;
69906;SDS011;57190;47.918;8.112;2023-01-30T16:21:03;1.83;;;1.73;;
69906;SDS011;57190;47.918;8.112;2023-01-30T16:23:41;1.67;;;1.57;;
69906;SDS011;57190;47.918;8.112;2023-01-30T16:26:16;1.70;;;1.60;;
69906;SDS011;57190;47.918;8.112;2023-01-30T16:28:45;1.57;;;1.47;;
69906;SDS011;57190;47.918;8.112;2023-01-30T16:31:13;2.43;;;1.77;;
69906;SDS011;57190;47.918;8.112;2023-01-30T16:33:40;1.20;;;1.20;;
69906;SDS011;57190;47.918;8.112;2023-01-30T16:36:28;1.13;;;1.13;;
69906;SDS011;57190;47.918;8.112;2023-01-30T16:38:52;1.50;;;1.40;;
69906;SDS011;57190;47.918;8.112;2023-01-30T16:51:44;1.53;;;1.43;;
69906;SDS011;57190;47.918;8.112;2023-01-30T16:54:18;1.90;;;1.80;;
69906;SDS011;57190;47.918;8.112;2023-01-30T16:56:48;1.80;;;1.70;;
69906;SDS011;57190;47.918;8.112;2023-01-30T16:59:20;2.00;;;1.90;;
69906;SDS011;57190;47.918;8.112;2023-01-30T17:01:52;1.93;;;1.73;;
69906;SDS011;57190;47.918;8.112;2023-01-30T17:04:21;1.47;;;1.30;;
69906;SDS011;57190;47.918;8.112;2023-01-30T17:06:52;1.70;;;1.60;;
69906;SDS011;57190;47.918;8.112;2023-01-30T17:14:50;1.60;;;1.50;;
69906;SDS011;57190;47.918;8.112;2023-01-30T17:17:38;1.70;;;1.60;;
69906;SDS011;57190;47.918;8.112;2023-01-30T17:20:04;2.43;;;2.23;;
69906;SDS011;57190;47.918;8.112;2023-01-30T17:22:30;2.07;;;1.97;;
69906;SDS011;57190;47.918;8.112;2023-01-30T17:25:06;1.80;;;1.70;;
69906;SDS011;57190;47.918;8.112;2023-01-30T17:27:40;1.70;;;1.60;;
69906;SDS011;57190;47.918;8.112;2023-01-30T17:30:16;1.43;;;1.33;;
69906;SDS011;57190;47.918;8.112;2023-01-30T17:32:42;1.60;;;1.50;;
69906;SDS011;57190;47.918;8.112;2023-01-30T17:35:08;1.63;;;1.50;;
69906;SDS011;57190;47.918;8.112;2023-01-30T17:37:35;1.73;;;1.63;;
69906;SDS011;57190;47.918;8.112;2023-01-30T17:40:01;1.60;;;1.50;;
69906;SDS011;57190;47.918;8.112;2023-01-30T17:42:26;1.70;;;1.60;;
69906;SDS011;57190;47.918;8.112;2023-01-30T17:44:52;1.77;;;1.67;;
69906;SDS011;57190;47.918;8.112;2023-01-30T17:47:18;1.67;;;1.57;;
69906;SDS011;57190;47.918;8.112;2023-01-30T17:49:45;1.50;;;1.40;;
69906;SDS011;57190;47.918;8.112;2023-01-30T17:52:11;1.33;;;1.27;;
69906;SDS011;57190;47.918;8.112;2023-01-30T17:54:37;1.83;;;1.73;;
69906;SDS011;57190;47.918;8.112;2023-01-30T17:57:03;1.60;;;1.50;;
69906;SDS011;57190;47.918;8.112;2023-01-30T17:59:30;3.17;;;1.53;;
69906;SDS011;57190;47.918;8.112;2023-01-30T18:01:57;1.43;;;1.40;;
69906;SDS011;57190;47.918;8.112;2023-01-30T18:04:23;1.77;;;1.67;;
69906;SDS011;57190;47.918;8.112;2023-01-30T18:06:52;1.60;;;1.50;;
69906;SDS011;57190;47.918;8.112;2023-01-30T18:09:30;1.73;;;1.63;;
69906;SDS011;57190;47.918;8.112;2023-01-30T18:11:55;1.70;;;1.60;;
69906;SDS011;57190;47.918;8.112;2023-01-30T18:14:21;2.07;;;1.67;;
69906;SDS011;57190;47.918;8.112;2023-01-30T18:16:49;1.60;;;1.50;;
69906;SDS011;57190;47.918;8.112;2023-01-30T18:19:19;1.70;;;1.60;;
69906;SDS011;57190;47.918;8.112;2023-01-30T18:21:48;1.77;;;1.67;;
69906;SDS011;57190;47.918;8.112;2023-01-30T18:24:14;2.40;;;1.60;;
69906;SDS011;57190;47.918;8.112;2023-01-30T18:26:39;1.60;;;1.40;;
69906;SDS011;57190;47.918;8.112;2023-01-30T18:29:06;1.40;;;1.30;;
69906;SDS011;57190;47.918;8.112;2023-01-30T18:31:33;1.60;;;1.50;;
69906;SDS011;57190;47.918;8.112;2023-01-30T18:33:59;1.73;;;1.63;;